sensor_id;sensor_type;location;lat;lon;timestamp;pressure;altitude;pressure_sealevel;temperature;humidity
21821;BME280;11073;48.586;12.066;2022-08-06T00:00:17;96771.47;;;24.02;64.79
21821;BME280;11073;48.586;12.066;2022-08-06T00:02:53;96757.78;;;23.97;64.71
21821;BME280;11073;48.586;12.066;2022-08-06T00:05:24;96761.50;;;23.92;64.48
21821;BME280;11073;48.586;12.066;2022-08-06T00:08:06;96753.91;;;23.98;64.88
21821;BME280;11073;48.586;12.066;2022-08-06T00:10:35;96758.47;;;24.02;64.74
21821;BME280;11073;48.586;12.066;2022-08-06T00:13:09;96770.00;;;24.04;64.38
21821;BME280;11073;48.586;12.066;2022-08-06T00:15:40;96770.97;;;24.00;64.25
21821;BME280;11073;48.586;12.066;2022-08-06T00:18:30;96766.88;;;23.97;64.02
21821;BME280;11073;48.586;12.066;2022-08-06T00:21:00;96771.31;;;23.98;63.94
21821;BME280;11073;48.586;12.066;2022-08-06T00:23:54;96766.88;;;23.97;64.11
21821;BME280;11073;48.586;12.066;2022-08-06T00:26:25;96767.72;;;23.98;63.97
21821;BME280;11073;48.586;12.066;2022-08-06T00:28:55;96775.06;;;24.02;64.13
21821;BME280;11073;48.586;12.066;2022-08-06T00:31:25;96779.44;;;24.03;64.26
21821;BME280;11073;48.586;12.066;2022-08-06T00:33:58;96772.13;;;23.99;63.89
21821;BME280;11073;48.586;12.066;2022-08-06T00:36:32;96788.38;;;24.00;64.09
21821;BME280;11073;48.586;12.066;2022-08-06T00:39:06;96775.69;;;23.99;63.77
21821;BME280;11073;48.586;12.066;2022-08-06T00:41:39;96781.84;;;23.96;64.03
21821;BME280;11073;48.586;12.066;2022-08-06T00:44:13;96780.34;;;23.90;63.88
21821;BME280;11073;48.586;12.066;2022-08-06T00:46:58;96793.34;;;23.89;64.16
21821;BME280;11073;48.586;12.066;2022-08-06T00:49:27;96793.34;;;23.89;64.10
21821;BME280;11073;48.586;12.066;2022-08-06T00:52:17;96799.19;;;23.88;63.99
21821;BME280;11073;48.586;12.066;2022-08-06T00:54:46;96802.59;;;23.85;64.55
21821;BME280;11073;48.586;12.066;2022-08-06T00:57:18;96807.00;;;23.86;64.73
21821;BME280;11073;48.586;12.066;2022-08-06T00:59:53;96808.47;;;23.83;64.43
21821;BME280;11073;48.586;12.066;2022-08-06T01:02:21;96818.19;;;23.81;64.80
21821;BME280;11073;48.586;12.066;2022-08-06T01:04:53;96812.78;;;23.76;65.06
21821;BME280;11073;48.586;12.066;2022-08-06T01:07:44;96806.25;;;23.72;65.29
21821;BME280;11073;48.586;12.066;2022-08-06T01:10:19;96808.31;;;23.66;65.10
21821;BME280;11073;48.586;12.066;2022-08-06T01:13:09;96808.63;;;23.64;65.38
21821;BME280;11073;48.586;12.066;2022-08-06T01:16:03;96801.47;;;23.63;65.37
21821;BME280;11073;48.586;12.066;2022-08-06T01:18:43;96799.63;;;23.59;65.62
21821;BME280;11073;48.586;12.066;2022-08-06T01:21:40;96801.81;;;23.62;66.00
21821;BME280;11073;48.586;12.066;2022-08-06T01:24:46;96805.75;;;23.70;66.12
21821;BME280;11073;48.586;12.066;2022-08-06T01:27:44;96803.81;;;23.70;65.90
21821;BME280;11073;48.586;12.066;2022-08-06T01:30:17;96808.19;;;23.71;66.65
21821;BME280;11073;48.586;12.066;2022-08-06T01:32:58;96807.28;;;23.76;66.71
21821;BME280;11073;48.586;12.066;2022-08-06T01:35:39;96806.31;;;23.80;66.44
21821;BME280;11073;48.586;12.066;2022-08-06T01:38:25;96812.53;;;23.86;66.34
21821;BME280;11073;48.586;12.066;2022-08-06T01:40:59;96808.84;;;23.90;66.09
21821;BME280;11073;48.586;12.066;2022-08-06T01:43:31;96806.22;;;23.94;65.83
21821;BME280;11073;48.586;12.066;2022-08-06T01:46:20;96801.97;;;23.88;66.20
21821;BME280;11073;48.586;12.066;2022-08-06T01:48:55;96799.84;;;23.85;66.45
21821;BME280;11073;48.586;12.066;2022-08-06T01:51:35;96804.22;;;23.86;66.47
21821;BME280;11073;48.586;12.066;2022-08-06T01:54:28;96814.28;;;23.82;66.79
21821;BME280;11073;48.586;12.066;2022-08-06T01:57:00;96813.72;;;23.71;66.23
21821;BME280;11073;48.586;12.066;2022-08-06T01:59:38;96816.81;;;23.70;65.99
21821;BME280;11073;48.586;12.066;2022-08-06T02:02:11;96823.16;;;23.70;65.77
21821;BME280;11073;48.586;12.066;2022-08-06T02:04:45;96820.50;;;23.65;65.57
21821;BME280;11073;48.586;12.066;2022-08-06T02:07:22;96821.22;;;23.57;65.12
21821;BME280;11073;48.586;12.066;2022-08-06T02:10:14;96827.69;;;23.52;65.63
21821;BME280;11073;48.586;12.066;2022-08-06T02:12:46;96832.72;;;23.50;65.73
21821;BME280;11073;48.586;12.066;2022-08-06T02:15:20;96825.56;;;23.49;65.42
21821;BME280;11073;48.586;12.066;2022-08-06T02:18:13;96831.19;;;23.44;65.65
21821;BME280;11073;48.586;12.066;2022-08-06T02:21:02;96813.09;;;23.38;65.27
21821;BME280;11073;48.586;12.066;2022-08-06T02:23:52;96811.16;;;23.38;65.04
21821;BME280;11073;48.586;12.066;2022-08-06T02:26:23;96807.38;;;23.34;64.70
21821;BME280;11073;48.586;12.066;2022-08-06T02:29:00;96801.81;;;23.26;64.72
21821;BME280;11073;48.586;12.066;2022-08-06T02:31:31;96807.44;;;23.21;64.65
21821;BME280;11073;48.586;12.066;2022-08-06T02:34:18;96811.09;;;23.16;64.38
21821;BME280;11073;48.586;12.066;2022-08-06T02:37:03;96822.28;;;23.11;64.01
21821;BME280;11073;48.586;12.066;2022-08-06T02:39:38;96817.69;;;23.06;64.35
21821;BME280;11073;48.586;12.066;2022-08-06T02:42:21;96811.75;;;22.99;64.16
21821;BME280;11073;48.586;12.066;2022-08-06T02:45:00;96820.06;;;22.99;63.99
21821;BME280;11073;48.586;12.066;2022-08-06T02:47:38;96824.53;;;22.95;63.85
21821;BME280;11073;48.586;12.066;2022-08-06T02:50:31;96828.56;;;22.89;63.49
21821;BME280;11073;48.586;12.066;2022-08-06T02:53:06;96813.41;;;22.87;63.65
21821;BME280;11073;48.586;12.066;2022-08-06T02:55:54;96812.06;;;22.84;63.92
21821;BME280;11073;48.586;12.066;2022-08-06T02:58:28;96822.59;;;22.82;63.55
21821;BME280;11073;48.586;12.066;2022-08-06T03:01:10;96825.47;;;22.77;63.85
21821;BME280;11073;48.586;12.066;2022-08-06T03:03:52;96821.16;;;22.71;63.66
21821;BME280;11073;48.586;12.066;2022-08-06T03:06:30;96818.63;;;22.61;63.29
21821;BME280;11073;48.586;12.066;2022-08-06T03:09:00;96820.16;;;22.53;63.69
21821;BME280;11073;48.586;12.066;2022-08-06T03:11:33;96832.91;;;22.49;63.39
21821;BME280;11073;48.586;12.066;2022-08-06T03:14:06;96837.69;;;22.43;62.82
21821;BME280;11073;48.586;12.066;2022-08-06T03:16:56;96833.53;;;22.32;63.22
21821;BME280;11073;48.586;12.066;2022-08-06T03:19:28;96837.41;;;22.31;63.38
21821;BME280;11073;48.586;12.066;2022-08-06T03:22:18;96824.28;;;22.23;63.17
21821;BME280;11073;48.586;12.066;2022-08-06T03:25:10;96832.75;;;22.13;62.57
21821;BME280;11073;48.586;12.066;2022-08-06T03:27:44;96849.16;;;22.04;62.37
21821;BME280;11073;48.586;12.066;2022-08-06T03:30:14;96840.66;;;22.00;62.18
21821;BME280;11073;48.586;12.066;2022-08-06T03:33:02;96852.38;;;21.92;62.58
21821;BME280;11073;48.586;12.066;2022-08-06T03:35:43;96835.59;;;21.75;62.30
21821;BME280;11073;48.586;12.066;2022-08-06T03:38:18;96856.88;;;21.88;62.21
21821;BME280;11073;48.586;12.066;2022-08-06T03:40:57;96855.00;;;21.84;62.29
21821;BME280;11073;48.586;12.066;2022-08-06T03:43:29;96855.63;;;21.81;62.68
21821;BME280;11073;48.586;12.066;2022-08-06T03:46:22;96863.78;;;21.86;62.48
21821;BME280;11073;48.586;12.066;2022-08-06T03:48:54;96871.75;;;21.87;62.75
21821;BME280;11073;48.586;12.066;2022-08-06T03:51:27;96867.97;;;21.83;62.79
21821;BME280;11073;48.586;12.066;2022-08-06T03:54:20;96854.81;;;21.80;62.53
21821;BME280;11073;48.586;12.066;2022-08-06T03:56:59;96859.94;;;21.68;62.13
21821;BME280;11073;48.586;12.066;2022-08-06T03:59:38;96873.72;;;21.68;61.98
21821;BME280;11073;48.586;12.066;2022-08-06T04:02:27;96879.81;;;21.65;61.53
21821;BME280;11073;48.586;12.066;2022-08-06T04:05:16;96890.38;;;21.58;61.58
21821;BME280;11073;48.586;12.066;2022-08-06T04:07:51;96895.25;;;21.47;61.08
21821;BME280;11073;48.586;12.066;2022-08-06T04:10:25;96891.72;;;21.41;61.44
21821;BME280;11073;48.586;12.066;2022-08-06T04:13:08;96905.88;;;21.35;60.99
21821;BME280;11073;48.586;12.066;2022-08-06T04:15:57;96915.06;;;21.25;61.03
21821;BME280;11073;48.586;12.066;2022-08-06T04:18:31;96915.63;;;21.22;61.22
21821;BME280;11073;48.586;12.066;2022-08-06T04:21:11;96911.34;;;21.16;60.85
21821;BME280;11073;48.586;12.066;2022-08-06T04:24:03;96920.13;;;21.18;61.19
21821;BME280;11073;48.586;12.066;2022-08-06T04:26:37;96917.78;;;21.06;60.76
21821;BME280;11073;48.586;12.066;2022-08-06T04:29:09;96918.66;;;21.02;61.05
21821;BME280;11073;48.586;12.066;2022-08-06T04:31:44;96914.34;;;20.96;60.87
21821;BME280;11073;48.586;12.066;2022-08-06T04:34:34;96928.31;;;20.99;61.02
21821;BME280;11073;48.586;12.066;2022-08-06T04:37:25;96917.44;;;20.89;60.98
21821;BME280;11073;48.586;12.066;2022-08-06T04:40:08;96945.59;;;21.05;60.92
21821;BME280;11073;48.586;12.066;2022-08-06T04:42:46;96941.09;;;20.90;61.07
21821;BME280;11073;48.586;12.066;2022-08-06T04:45:17;96942.19;;;20.89;61.17
21821;BME280;11073;48.586;12.066;2022-08-06T04:48:09;96948.00;;;20.87;61.20
21821;BME280;11073;48.586;12.066;2022-08-06T04:50:47;96945.00;;;20.84;61.42
21821;BME280;11073;48.586;12.066;2022-08-06T04:53:21;96946.53;;;20.95;61.41
21821;BME280;11073;48.586;12.066;2022-08-06T04:56:11;96950.84;;;20.77;61.24
21821;BME280;11073;48.586;12.066;2022-08-06T04:58:44;96958.06;;;20.73;61.05
21821;BME280;11073;48.586;12.066;2022-08-06T05:01:13;96946.34;;;20.62;60.97
21821;BME280;11073;48.586;12.066;2022-08-06T05:03:46;96963.59;;;20.68;61.42
21821;BME280;11073;48.586;12.066;2022-08-06T05:06:42;96961.94;;;20.72;61.26
21821;BME280;11073;48.586;12.066;2022-08-06T05:09:18;96965.19;;;20.74;61.28
21821;BME280;11073;48.586;12.066;2022-08-06T05:11:56;96965.72;;;20.76;61.15
21821;BME280;11073;48.586;12.066;2022-08-06T05:14:37;96967.44;;;20.72;61.26
21821;BME280;11073;48.586;12.066;2022-08-06T05:17:09;96975.09;;;20.75;61.40
21821;BME280;11073;48.586;12.066;2022-08-06T05:19:43;96971.00;;;20.73;61.14
21821;BME280;11073;48.586;12.066;2022-08-06T05:22:15;96970.44;;;20.71;61.52
21821;BME280;11073;48.586;12.066;2022-08-06T05:25:05;96965.28;;;20.64;61.31
21821;BME280;11073;48.586;12.066;2022-08-06T05:27:45;96977.19;;;20.59;61.58
21821;BME280;11073;48.586;12.066;2022-08-06T05:30:41;96989.28;;;20.58;61.83
21821;BME280;11073;48.586;12.066;2022-08-06T05:33:11;96997.81;;;20.57;61.90
21821;BME280;11073;48.586;12.066;2022-08-06T05:35:43;96994.59;;;20.50;62.18
21821;BME280;11073;48.586;12.066;2022-08-06T05:38:29;96996.50;;;20.49;62.43
21821;BME280;11073;48.586;12.066;2022-08-06T05:41:04;96999.53;;;20.48;62.48
21821;BME280;11073;48.586;12.066;2022-08-06T05:43:36;96992.72;;;20.45;62.58
21821;BME280;11073;48.586;12.066;2022-08-06T05:46:28;97004.50;;;20.51;62.77
21821;BME280;11073;48.586;12.066;2022-08-06T05:49:03;97006.16;;;20.47;62.86
21821;BME280;11073;48.586;12.066;2022-08-06T05:51:58;97017.47;;;20.45;63.10
21821;BME280;11073;48.586;12.066;2022-08-06T05:54:34;97015.81;;;20.44;62.95
21821;BME280;11073;48.586;12.066;2022-08-06T05:57:11;97024.88;;;20.39;63.13
21821;BME280;11073;48.586;12.066;2022-08-06T05:59:49;97022.13;;;20.39;63.22
21821;BME280;11073;48.586;12.066;2022-08-06T06:02:26;97025.19;;;20.38;63.63
21821;BME280;11073;48.586;12.066;2022-08-06T06:04:58;97031.72;;;20.42;63.83
21821;BME280;11073;48.586;12.066;2022-08-06T06:07:48;97024.59;;;20.46;63.75
21821;BME280;11073;48.586;12.066;2022-08-06T06:10:39;97032.59;;;20.43;63.89
21821;BME280;11073;48.586;12.066;2022-08-06T06:13:20;97037.22;;;20.42;63.96
21821;BME280;11073;48.586;12.066;2022-08-06T06:16:01;97016.94;;;20.38;63.91
21821;BME280;11073;48.586;12.066;2022-08-06T06:18:46;97014.41;;;20.42;63.85
21821;BME280;11073;48.586;12.066;2022-08-06T06:21:40;97027.34;;;20.46;63.76
21821;BME280;11073;48.586;12.066;2022-08-06T06:24:22;97023.78;;;20.41;63.77
21821;BME280;11073;48.586;12.066;2022-08-06T06:26:57;97027.63;;;20.39;63.87
21821;BME280;11073;48.586;12.066;2022-08-06T06:29:36;97033.41;;;20.43;63.70
21821;BME280;11073;48.586;12.066;2022-08-06T06:32:37;97033.66;;;20.42;63.81
21821;BME280;11073;48.586;12.066;2022-08-06T06:35:19;97046.31;;;20.43;63.71
21821;BME280;11073;48.586;12.066;2022-08-06T06:37:58;97047.94;;;20.49;63.74
21821;BME280;11073;48.586;12.066;2022-08-06T06:40:44;97044.66;;;20.47;63.71
21821;BME280;11073;48.586;12.066;2022-08-06T06:43:33;97058.97;;;20.44;63.87
21821;BME280;11073;48.586;12.066;2022-08-06T06:46:18;97060.00;;;20.53;63.61
21821;BME280;11073;48.586;12.066;2022-08-06T06:49:12;97068.00;;;20.49;63.71
21821;BME280;11073;48.586;12.066;2022-08-06T06:52:08;97062.50;;;20.49;63.79
21821;BME280;11073;48.586;12.066;2022-08-06T06:54:40;97073.25;;;20.51;63.61
21821;BME280;11073;48.586;12.066;2022-08-06T06:57:17;97071.31;;;20.51;63.37
21821;BME280;11073;48.586;12.066;2022-08-06T06:59:52;97065.25;;;20.49;63.85
21821;BME280;11073;48.586;12.066;2022-08-06T07:02:46;97071.88;;;20.48;63.75
21821;BME280;11073;48.586;12.066;2022-08-06T07:05:19;97069.66;;;20.50;64.02
21821;BME280;11073;48.586;12.066;2022-08-06T07:08:09;97074.34;;;20.50;63.67
21821;BME280;11073;48.586;12.066;2022-08-06T07:10:39;97044.97;;;20.35;63.85
21821;BME280;11073;48.586;12.066;2022-08-06T07:13:11;97073.78;;;20.48;63.77
21821;BME280;11073;48.586;12.066;2022-08-06T07:15:43;97075.19;;;20.45;63.71
21821;BME280;11073;48.586;12.066;2022-08-06T07:18:21;97076.84;;;20.46;64.00
21821;BME280;11073;48.586;12.066;2022-08-06T07:21:04;97079.84;;;20.50;63.91
21821;BME280;11073;48.586;12.066;2022-08-06T07:23:34;97086.41;;;20.54;63.86
21821;BME280;11073;48.586;12.066;2022-08-06T07:26:23;97083.69;;;20.49;63.93
21821;BME280;11073;48.586;12.066;2022-08-06T07:28:53;97089.19;;;20.49;63.64
21821;BME280;11073;48.586;12.066;2022-08-06T07:31:30;97093.31;;;20.51;63.68
21821;BME280;11073;48.586;12.066;2022-08-06T07:34:03;97091.13;;;20.48;64.04
21821;BME280;11073;48.586;12.066;2022-08-06T07:36:40;97093.31;;;20.51;63.71
21821;BME280;11073;48.586;12.066;2022-08-06T07:39:25;97099.38;;;20.48;63.87
21821;BME280;11073;48.586;12.066;2022-08-06T07:42:06;97092.50;;;20.51;63.89
21821;BME280;11073;48.586;12.066;2022-08-06T07:44:42;97098.19;;;20.59;63.78
21821;BME280;11073;48.586;12.066;2022-08-06T07:47:27;97107.72;;;20.72;63.75
21821;BME280;11073;48.586;12.066;2022-08-06T07:50:18;97090.41;;;20.72;63.33
21821;BME280;11073;48.586;12.066;2022-08-06T07:52:53;97109.53;;;20.87;63.46
21821;BME280;11073;48.586;12.066;2022-08-06T07:55:24;97102.09;;;20.87;63.02
21821;BME280;11073;48.586;12.066;2022-08-06T07:58:07;97107.75;;;21.01;63.04
21821;BME280;11073;48.586;12.066;2022-08-06T08:00:37;97113.50;;;21.05;62.67
21821;BME280;11073;48.586;12.066;2022-08-06T08:03:17;97104.38;;;21.09;62.89
21821;BME280;11073;48.586;12.066;2022-08-06T08:06:24;97112.22;;;21.21;62.66
21821;BME280;11073;48.586;12.066;2022-08-06T08:08:57;97108.31;;;21.27;62.59
21821;BME280;11073;48.586;12.066;2022-08-06T08:11:27;97114.31;;;21.34;62.36
21821;BME280;11073;48.586;12.066;2022-08-06T08:14:20;97121.69;;;21.44;61.89
21821;BME280;11073;48.586;12.066;2022-08-06T08:16:50;97117.91;;;21.35;61.58
21821;BME280;11073;48.586;12.066;2022-08-06T08:19:23;97125.34;;;21.58;61.47
21821;BME280;11073;48.586;12.066;2022-08-06T08:22:03;97133.25;;;21.65;61.05
21821;BME280;11073;48.586;12.066;2022-08-06T08:24:35;97123.44;;;21.59;60.98
21821;BME280;11073;48.586;12.066;2022-08-06T08:27:06;97137.44;;;21.62;60.97
21821;BME280;11073;48.586;12.066;2022-08-06T08:29:50;97137.69;;;21.66;60.50
21821;BME280;11073;48.586;12.066;2022-08-06T08:32:23;97135.88;;;21.80;60.85
21821;BME280;11073;48.586;12.066;2022-08-06T08:34:53;97140.38;;;21.95;60.28
21821;BME280;11073;48.586;12.066;2022-08-06T08:37:22;97143.47;;;22.12;60.50
21821;BME280;11073;48.586;12.066;2022-08-06T08:39:52;97149.16;;;22.21;60.11
21821;BME280;11073;48.586;12.066;2022-08-06T08:42:27;97139.03;;;22.35;59.92
21821;BME280;11073;48.586;12.066;2022-08-06T08:44:58;97125.84;;;22.32;58.96
21821;BME280;11073;48.586;12.066;2022-08-06T08:47:29;97146.78;;;22.33;59.10
21821;BME280;11073;48.586;12.066;2022-08-06T08:50:20;97141.22;;;22.38;58.58
21821;BME280;11073;48.586;12.066;2022-08-06T08:52:51;97134.03;;;22.37;58.60
21821;BME280;11073;48.586;12.066;2022-08-06T08:55:24;97145.69;;;22.53;58.24
21821;BME280;11073;48.586;12.066;2022-08-06T08:58:14;97148.34;;;22.58;58.13
21821;BME280;11073;48.586;12.066;2022-08-06T09:01:07;97147.22;;;22.59;57.64
21821;BME280;11073;48.586;12.066;2022-08-06T09:03:57;97138.13;;;22.58;57.81
21821;BME280;11073;48.586;12.066;2022-08-06T09:06:28;97143.28;;;22.65;58.01
21821;BME280;11073;48.586;12.066;2022-08-06T09:09:04;97143.13;;;22.75;57.42
21821;BME280;11073;48.586;12.066;2022-08-06T09:11:44;97150.16;;;22.87;57.67
21821;BME280;11073;48.586;12.066;2022-08-06T09:14:34;97156.34;;;22.97;57.38
21821;BME280;11073;48.586;12.066;2022-08-06T09:17:05;97151.03;;;23.01;57.07
21821;BME280;11073;48.586;12.066;2022-08-06T09:19:39;97147.13;;;23.02;56.80
21821;BME280;11073;48.586;12.066;2022-08-06T09:22:08;97163.84;;;23.10;56.58
21821;BME280;11073;48.586;12.066;2022-08-06T09:24:38;97155.47;;;23.16;56.30
21821;BME280;11073;48.586;12.066;2022-08-06T09:27:10;97161.50;;;23.18;55.75
21821;BME280;11073;48.586;12.066;2022-08-06T09:30:01;97153.72;;;23.06;55.42
21821;BME280;11073;48.586;12.066;2022-08-06T09:32:51;97167.03;;;23.18;55.76
21821;BME280;11073;48.586;12.066;2022-08-06T09:35:25;97171.44;;;23.19;55.54
21821;BME280;11073;48.586;12.066;2022-08-06T09:38:13;97176.97;;;23.19;55.61
21821;BME280;11073;48.586;12.066;2022-08-06T09:41:08;97174.63;;;23.26;55.59
21821;BME280;11073;48.586;12.066;2022-08-06T09:43:45;97175.72;;;23.25;55.59
21821;BME280;11073;48.586;12.066;2022-08-06T09:46:35;97175.53;;;23.21;55.53
21821;BME280;11073;48.586;12.066;2022-08-06T09:49:05;97179.06;;;23.08;55.30
21821;BME280;11073;48.586;12.066;2022-08-06T09:52:10;97189.09;;;23.04;54.79
21821;BME280;11073;48.586;12.066;2022-08-06T09:54:40;97189.75;;;22.96;55.11
21821;BME280;11073;48.586;12.066;2022-08-06T09:57:09;97179.94;;;22.90;54.91
21821;BME280;11073;48.586;12.066;2022-08-06T09:59:46;97188.22;;;22.90;55.02
21821;BME280;11073;48.586;12.066;2022-08-06T10:02:17;97186.25;;;22.90;54.79
21821;BME280;11073;48.586;12.066;2022-08-06T10:05:07;97187.91;;;22.91;54.90
21821;BME280;11073;48.586;12.066;2022-08-06T10:07:47;97186.03;;;22.87;55.28
21821;BME280;11073;48.586;12.066;2022-08-06T10:10:38;97193.03;;;22.79;55.29
21821;BME280;11073;48.586;12.066;2022-08-06T10:13:16;97195.31;;;22.72;55.16
21821;BME280;11073;48.586;12.066;2022-08-06T10:15:47;97199.72;;;22.73;55.01
21821;BME280;11073;48.586;12.066;2022-08-06T10:18:39;97183.09;;;22.78;55.40
21821;BME280;11073;48.586;12.066;2022-08-06T10:21:27;97184.53;;;22.94;54.96
21821;BME280;11073;48.586;12.066;2022-08-06T10:24:09;97182.06;;;23.11;55.04
21821;BME280;11073;48.586;12.066;2022-08-06T10:26:40;97189.53;;;23.25;54.60
21821;BME280;11073;48.586;12.066;2022-08-06T10:29:11;97182.94;;;23.26;54.42
21821;BME280;11073;48.586;12.066;2022-08-06T10:31:52;97189.81;;;23.42;54.14
21821;BME280;11073;48.586;12.066;2022-08-06T10:34:26;97192.19;;;23.49;54.11
21821;BME280;11073;48.586;12.066;2022-08-06T10:37:01;97182.97;;;23.53;53.87
21821;BME280;11073;48.586;12.066;2022-08-06T10:39:55;97195.13;;;23.71;53.73
21821;BME280;11073;48.586;12.066;2022-08-06T10:42:34;97189.69;;;23.66;53.22
21821;BME280;11073;48.586;12.066;2022-08-06T10:45:08;97188.56;;;23.81;53.28
21821;BME280;11073;48.586;12.066;2022-08-06T10:47:43;97192.06;;;24.00;52.87
21821;BME280;11073;48.586;12.066;2022-08-06T10:50:32;97192.59;;;24.16;52.48
21821;BME280;11073;48.586;12.066;2022-08-06T10:53:15;97209.09;;;24.48;52.48
21821;BME280;11073;48.586;12.066;2022-08-06T10:56:06;97197.44;;;24.74;52.00
21821;BME280;11073;48.586;12.066;2022-08-06T10:58:37;97209.38;;;24.97;51.24
21821;BME280;11073;48.586;12.066;2022-08-06T11:01:09;97193.19;;;24.90;50.99
21821;BME280;11073;48.586;12.066;2022-08-06T11:03:51;97207.22;;;25.08;50.43
21821;BME280;11073;48.586;12.066;2022-08-06T11:09:50;97212.44;;;25.32;49.77
21821;BME280;11073;48.586;12.066;2022-08-06T11:12:45;97197.06;;;25.48;49.48
21821;BME280;11073;48.586;12.066;2022-08-06T11:15:17;97206.19;;;25.48;49.25
21821;BME280;11073;48.586;12.066;2022-08-06T11:17:51;97201.78;;;25.47;49.03
21821;BME280;11073;48.586;12.066;2022-08-06T11:20:39;97197.25;;;25.51;48.79
21821;BME280;11073;48.586;12.066;2022-08-06T11:23:24;97196.84;;;25.67;48.92
21821;BME280;11073;48.586;12.066;2022-08-06T11:26:32;97192.19;;;25.76;48.28
21821;BME280;11073;48.586;12.066;2022-08-06T11:29:05;97200.59;;;25.71;48.11
21821;BME280;11073;48.586;12.066;2022-08-06T11:31:37;97202.78;;;25.74;47.92
21821;BME280;11073;48.586;12.066;2022-08-06T11:34:40;97191.38;;;25.75;47.70
21821;BME280;11073;48.586;12.066;2022-08-06T11:37:46;97188.66;;;25.84;47.27
21821;BME280;11073;48.586;12.066;2022-08-06T11:40:55;97189.69;;;25.97;47.06
21821;BME280;11073;48.586;12.066;2022-08-06T11:43:48;97190.81;;;25.96;46.94
21821;BME280;11073;48.586;12.066;2022-08-06T11:46:31;97191.22;;;26.11;46.78
21821;BME280;11073;48.586;12.066;2022-08-06T11:49:24;97193.22;;;26.28;46.42
21821;BME280;11073;48.586;12.066;2022-08-06T11:52:38;97194.22;;;26.32;46.11
21821;BME280;11073;48.586;12.066;2022-08-06T11:55:13;97192.63;;;26.40;45.95
21821;BME280;11073;48.586;12.066;2022-08-06T11:58:16;97190.63;;;26.32;45.96
21821;BME280;11073;48.586;12.066;2022-08-06T12:00:57;97188.13;;;26.22;45.93
21821;BME280;11073;48.586;12.066;2022-08-06T12:03:37;97184.81;;;26.02;45.75
21821;BME280;11073;48.586;12.066;2022-08-06T12:06:20;97175.66;;;25.93;45.93
21821;BME280;11073;48.586;12.066;2022-08-06T12:09:05;97169.63;;;26.00;46.11
21821;BME280;11073;48.586;12.066;2022-08-06T12:11:42;97167.38;;;26.10;45.81
21821;BME280;11073;48.586;12.066;2022-08-06T12:14:39;97179.78;;;26.13;45.93
21821;BME280;11073;48.586;12.066;2022-08-06T12:17:17;97176.06;;;26.26;45.87
21821;BME280;11073;48.586;12.066;2022-08-06T12:19:49;97162.78;;;26.63;45.71
21821;BME280;11073;48.586;12.066;2022-08-06T12:22:31;97165.41;;;26.94;44.79
21821;BME280;11073;48.586;12.066;2022-08-06T12:25:02;97169.34;;;26.93;44.39
21821;BME280;11073;48.586;12.066;2022-08-06T12:27:40;97176.38;;;26.90;44.11
21821;BME280;11073;48.586;12.066;2022-08-06T12:30:17;97176.53;;;26.94;44.03
21821;BME280;11073;48.586;12.066;2022-08-06T12:33:05;97175.56;;;26.99;43.75
21821;BME280;11073;48.586;12.066;2022-08-06T12:35:50;97161.69;;;27.07;43.71
21821;BME280;11073;48.586;12.066;2022-08-06T12:38:20;97166.91;;;27.26;43.59
21821;BME280;11073;48.586;12.066;2022-08-06T12:40:52;97168.72;;;27.31;42.83
21821;BME280;11073;48.586;12.066;2022-08-06T12:43:26;97161.81;;;27.28;42.83
21821;BME280;11073;48.586;12.066;2022-08-06T12:46:12;97163.94;;;27.23;42.88
21821;BME280;11073;48.586;12.066;2022-08-06T12:48:49;97163.97;;;27.31;42.71
21821;BME280;11073;48.586;12.066;2022-08-06T12:51:19;97146.84;;;27.76;42.39
21821;BME280;11073;48.586;12.066;2022-08-06T12:53:57;97147.28;;;28.25;41.94
21821;BME280;11073;48.586;12.066;2022-08-06T12:56:29;97151.69;;;28.35;40.74
21821;BME280;11073;48.586;12.066;2022-08-06T12:59:03;97151.81;;;28.29;40.73
21821;BME280;11073;48.586;12.066;2022-08-06T13:01:44;97147.25;;;28.34;40.41
21821;BME280;11073;48.586;12.066;2022-08-06T13:04:35;97142.50;;;28.34;40.05
21821;BME280;11073;48.586;12.066;2022-08-06T13:07:06;97146.91;;;28.35;39.86
21821;BME280;11073;48.586;12.066;2022-08-06T13:09:42;97137.06;;;28.38;39.71
21821;BME280;11073;48.586;12.066;2022-08-06T13:12:31;97152.00;;;28.63;39.57
21821;BME280;11073;48.586;12.066;2022-08-06T13:15:22;97140.69;;;29.22;38.89
21821;BME280;11073;48.586;12.066;2022-08-06T13:18:11;97146.84;;;29.48;38.62
21821;BME280;11073;48.586;12.066;2022-08-06T13:21:01;97136.56;;;29.40;38.12
21821;BME280;11073;48.586;12.066;2022-08-06T13:23:44;97143.63;;;29.58;37.37
21821;BME280;11073;48.586;12.066;2022-08-06T13:26:17;97139.28;;;29.49;37.51
21821;BME280;11073;48.586;12.066;2022-08-06T13:29:08;97150.84;;;29.59;37.56
21821;BME280;11073;48.586;12.066;2022-08-06T13:32:01;97138.09;;;29.95;37.09
21821;BME280;11073;48.586;12.066;2022-08-06T13:34:52;97130.44;;;30.41;35.78
21821;BME280;11073;48.586;12.066;2022-08-06T13:37:45;97142.06;;;30.55;34.74
21821;BME280;11073;48.586;12.066;2022-08-06T13:40:43;97144.66;;;30.11;35.07
21821;BME280;11073;48.586;12.066;2022-08-06T13:43:35;97145.78;;;30.59;34.75
21821;BME280;11073;48.586;12.066;2022-08-06T13:46:23;97146.56;;;31.24;34.46
21821;BME280;11073;48.586;12.066;2022-08-06T13:49:00;97139.41;;;31.83;33.78
21821;BME280;11073;48.586;12.066;2022-08-06T13:51:41;97138.56;;;32.14;32.38
21821;BME280;11073;48.586;12.066;2022-08-06T13:54:21;97136.84;;;31.78;32.46
21821;BME280;11073;48.586;12.066;2022-08-06T13:56:51;97130.44;;;31.34;32.40
21821;BME280;11073;48.586;12.066;2022-08-06T13:59:24;97139.19;;;31.76;31.95
21821;BME280;11073;48.586;12.066;2022-08-06T14:02:09;97131.63;;;32.24;31.59